createdAt,value
2022-12-28T00:00:02.003Z,1011.40
2022-12-28T00:01:01.886Z,1011.35
2022-12-28T00:02:02.883Z,1011.31
2022-12-28T00:03:02.688Z,1011.25
2022-12-28T00:04:02.604Z,1011.22
2022-12-28T00:05:03.062Z,1011.20
2022-12-28T00:06:02.799Z,1011.17
2022-12-28T00:07:02.094Z,1011.15
2022-12-28T00:08:02.254Z,1011.14
2022-12-28T00:09:01.969Z,1011.18
2022-12-28T00:10:02.399Z,1011.12
2022-12-28T00:11:07.936Z,1011.13
2022-12-28T00:12:02.201Z,1011.10
2022-12-28T00:13:01.935Z,1011.09
2022-12-28T00:14:02.406Z,1011.04
2022-12-28T00:15:02.172Z,1011.04
2022-12-28T00:16:01.853Z,1011.02
2022-12-28T00:17:02.347Z,1011.02
2022-12-28T00:18:02.610Z,1010.96
2022-12-28T00:19:02.922Z,1010.93
2022-12-28T00:20:02.340Z,1010.85
2022-12-28T00:21:02.734Z,1010.84
2022-12-28T00:22:01.907Z,1010.82
2022-12-28T00:23:02.119Z,1010.80
2022-12-28T00:24:01.826Z,1010.82
2022-12-28T00:25:02.332Z,1010.81
2022-12-28T00:26:02.101Z,1010.85
2022-12-28T00:27:01.989Z,1010.78
2022-12-28T00:28:02.379Z,1010.82
2022-12-28T00:29:05.105Z,1010.78
2022-12-28T00:30:02.155Z,1010.75
2022-12-28T00:31:01.864Z,1010.67
2022-12-28T00:32:02.484Z,1010.69
2022-12-28T00:33:02.909Z,1010.72
2022-12-28T00:34:02.542Z,1010.72
2022-12-28T00:35:02.417Z,1010.75
2022-12-28T00:36:02.835Z,1010.77
2022-12-28T00:37:11.421Z,1010.75
2022-12-28T00:38:02.093Z,1010.78
2022-12-28T00:39:01.812Z,1010.75
2022-12-28T00:40:01.708Z,1010.80
2022-12-28T00:41:02.115Z,1010.81
2022-12-28T00:42:02.471Z,1010.78
2022-12-28T00:43:02.219Z,1010.80
2022-12-28T00:44:02.216Z,1010.75
2022-12-28T00:45:01.986Z,1010.76
2022-12-28T00:46:02.482Z,1010.78
2022-12-28T00:47:02.734Z,1010.76
2022-12-28T00:48:02.753Z,1010.75
2022-12-28T00:49:02.842Z,1010.74
2022-12-28T00:50:02.523Z,1010.71
2022-12-28T00:51:02.987Z,1010.71
2022-12-28T00:52:02.297Z,1010.72
2022-12-28T00:53:01.674Z,1010.73
2022-12-28T00:54:02.025Z,1010.76
2022-12-28T00:55:01.724Z,1010.77
2022-12-28T00:56:02.044Z,1010.76
2022-12-28T00:57:02.079Z,1010.71
2022-12-28T00:58:01.853Z,1010.70
2022-12-28T00:59:02.117Z,1010.64
2022-12-28T01:00:02.157Z,1010.59
2022-12-28T01:01:02.269Z,1010.53
2022-12-28T01:02:03.152Z,1010.49
2022-12-28T01:03:03.296Z,1010.50
2022-12-28T01:04:02.814Z,1010.51
2022-12-28T01:05:03.093Z,1010.46
2022-12-28T01:06:03.033Z,1010.49
2022-12-28T01:07:02.542Z,1010.50
2022-12-28T01:08:02.287Z,1010.45
2022-12-28T01:09:02.035Z,1010.54
2022-12-28T01:10:02.323Z,1010.55
2022-12-28T01:11:02.113Z,1010.55
2022-12-28T01:12:02.480Z,1010.54
2022-12-28T01:13:02.884Z,1010.51
2022-12-28T01:14:02.662Z,1010.46
2022-12-28T01:15:03.011Z,1010.45
2022-12-28T01:16:02.456Z,1010.43
2022-12-28T01:17:01.874Z,1010.44
2022-12-28T01:18:02.292Z,1010.37
2022-12-28T01:19:01.949Z,1010.35
2022-12-28T01:20:02.191Z,1010.32
2022-12-28T01:21:02.533Z,1010.31
2022-12-28T01:22:02.545Z,1010.29
2022-12-28T01:23:02.951Z,1010.25
2022-12-28T01:24:02.863Z,1010.23
2022-12-28T01:25:02.683Z,1010.24
2022-12-28T01:26:03.069Z,1010.23
2022-12-28T01:27:02.860Z,1010.23
2022-12-28T01:28:03.053Z,1010.21
2022-12-28T01:29:02.904Z,1010.15
2022-12-28T01:30:03.478Z,1010.12
2022-12-28T01:31:02.994Z,1010.20
2022-12-28T01:32:02.513Z,1010.14
2022-12-28T01:33:02.629Z,1010.12
2022-12-28T01:34:02.931Z,1010.14
2022-12-28T01:35:02.850Z,1010.12
2022-12-28T01:36:02.395Z,1010.10
2022-12-28T01:37:03.205Z,1010.09
2022-12-28T01:38:02.799Z,1010.07
2022-12-28T01:39:03.232Z,1010.02
2022-12-28T01:40:02.740Z,1010.04
2022-12-28T01:41:02.787Z,1010.05
2022-12-28T01:42:02.732Z,1010.07
2022-12-28T01:43:02.190Z,1010.08
2022-12-28T01:44:02.571Z,1010.07
2022-12-28T01:45:02.277Z,1010.12
2022-12-28T01:46:02.604Z,1010.04
2022-12-28T01:47:02.717Z,1010.01
2022-12-28T01:48:02.592Z,1010.01
2022-12-28T01:49:02.999Z,1010.01
2022-12-28T01:50:02.554Z,1010.02
2022-12-28T01:51:02.807Z,1009.96
2022-12-28T01:52:02.773Z,1009.98
2022-12-28T01:53:02.744Z,1009.93
2022-12-28T01:54:03.137Z,1009.90
2022-12-28T01:55:03.329Z,1009.91
2022-12-28T01:56:02.861Z,1009.86
2022-12-28T01:57:02.352Z,1009.84
2022-12-28T01:58:02.084Z,1009.81
2022-12-28T01:59:02.602Z,1009.79
2022-12-28T02:00:02.358Z,1009.77
2022-12-28T02:01:02.265Z,1009.72
2022-12-28T02:02:03.435Z,1009.66
2022-12-28T02:03:03.258Z,1009.68
2022-12-28T02:04:02.776Z,1009.63
2022-12-28T02:05:02.521Z,1009.63
2022-12-28T02:06:03.107Z,1009.61
2022-12-28T02:07:03.230Z,1009.62
2022-12-28T02:08:03.454Z,1009.58
2022-12-28T02:09:03.092Z,1009.62
2022-12-28T02:10:42.240Z,1009.60
2022-12-28T02:11:03.379Z,1009.55
2022-12-28T02:12:03.014Z,1009.50
2022-12-28T02:13:02.783Z,1009.52
2022-12-28T02:14:03.167Z,1009.51
2022-12-28T02:15:02.948Z,1009.47
2022-12-28T02:16:03.132Z,1009.45
2022-12-28T02:17:03.728Z,1009.37
2022-12-28T02:18:03.631Z,1009.28
2022-12-28T02:19:03.235Z,1009.31
2022-12-28T02:20:03.035Z,1009.26
2022-12-28T02:21:03.359Z,1009.25
2022-12-28T02:22:02.496Z,1009.25
2022-12-28T02:23:02.996Z,1009.21
2022-12-28T02:24:02.773Z,1009.20
2022-12-28T02:25:12.646Z,1009.21
2022-12-28T02:26:02.628Z,1009.24
2022-12-28T02:27:03.085Z,1009.26
2022-12-28T02:28:02.952Z,1009.21
2022-12-28T02:29:02.669Z,1009.21
2022-12-28T02:30:02.710Z,1009.23
2022-12-28T02:31:03.427Z,1009.22
2022-12-28T02:32:02.285Z,1009.23
2022-12-28T02:33:02.720Z,1009.22
2022-12-28T02:34:02.507Z,1009.22
2022-12-28T02:35:02.904Z,1009.20
2022-12-28T02:36:02.428Z,1009.18
2022-12-28T02:37:02.756Z,1009.15
2022-12-28T02:38:02.917Z,1009.19
2022-12-28T02:39:02.630Z,1009.12
2022-12-28T02:40:02.778Z,1009.14
2022-12-28T02:41:02.830Z,1009.16
2022-12-28T02:42:03.224Z,1009.16
2022-12-28T02:43:02.811Z,1009.12
2022-12-28T02:44:03.072Z,1009.06
2022-12-28T02:45:03.225Z,1009.00
2022-12-28T02:46:02.946Z,1009.03
2022-12-28T02:47:02.260Z,1009.03
2022-12-28T02:48:02.016Z,1009.02
2022-12-28T02:49:02.247Z,1008.97
2022-12-28T02:50:02.453Z,1008.97
2022-12-28T02:51:02.296Z,1008.92
2022-12-28T02:52:02.991Z,1008.94
2022-12-28T02:53:02.706Z,1008.91
2022-12-28T02:54:03.192Z,1008.89
2022-12-28T02:55:02.695Z,1008.90
2022-12-28T02:56:02.634Z,1008.90
2022-12-28T02:57:02.792Z,1008.78
2022-12-28T02:58:02.333Z,1008.81
2022-12-28T02:59:02.690Z,1008.77
2022-12-28T03:00:02.483Z,1008.78
2022-12-28T03:01:02.897Z,1008.82
2022-12-28T03:02:03.286Z,1008.83
2022-12-28T03:03:02.757Z,1008.84
2022-12-28T03:04:02.985Z,1008.85
2022-12-28T03:05:02.803Z,1008.82
2022-12-28T03:06:02.688Z,1008.86
2022-12-28T03:07:02.884Z,1008.81
2022-12-28T03:08:02.693Z,1008.77
2022-12-28T03:09:02.640Z,1008.76
2022-12-28T03:10:03.026Z,1008.74
2022-12-28T03:11:03.207Z,1008.73
2022-12-28T03:12:03.361Z,1008.68
2022-12-28T03:13:03.328Z,1008.63
2022-12-28T03:14:03.157Z,1008.58
2022-12-28T03:15:03.353Z,1008.56
2022-12-28T03:16:02.800Z,1008.45
2022-12-28T03:17:02.742Z,1008.48
2022-12-28T03:18:03.071Z,1008.45
2022-12-28T03:19:02.394Z,1008.48
2022-12-28T03:20:02.959Z,1008.42
2022-12-28T03:21:02.401Z,1008.43
2022-12-28T03:22:03.161Z,1008.43
2022-12-28T03:23:02.838Z,1008.42
2022-12-28T03:24:02.640Z,1008.39
2022-12-28T03:25:02.729Z,1008.32
2022-12-28T03:26:02.862Z,1008.36
2022-12-28T03:27:03.199Z,1008.36
2022-12-28T03:28:03.107Z,1008.33
2022-12-28T03:29:02.784Z,1008.34
2022-12-28T03:30:03.235Z,1008.33
2022-12-28T03:31:03.075Z,1008.35
2022-12-28T03:32:02.925Z,1008.34
2022-12-28T03:33:03.270Z,1008.33
2022-12-28T03:34:02.933Z,1008.34
2022-12-28T03:35:03.299Z,1008.34
2022-12-28T03:36:03.409Z,1008.32
2022-12-28T03:37:03.413Z,1008.31
2022-12-28T03:38:03.208Z,1008.31
2022-12-28T03:39:03.677Z,1008.30
2022-12-28T03:40:03.742Z,1008.25
2022-12-28T03:41:03.277Z,1008.25
2022-12-28T03:42:02.715Z,1008.26
2022-12-28T03:43:03.208Z,1008.23
2022-12-28T03:44:02.848Z,1008.21
2022-12-28T03:45:02.852Z,1008.20
2022-12-28T03:46:03.269Z,1008.13
2022-12-28T03:47:02.775Z,1008.16
2022-12-28T03:48:03.274Z,1008.11
2022-12-28T03:49:03.107Z,1008.12
2022-12-28T03:50:03.008Z,1008.09
2022-12-28T03:51:03.413Z,1008.02
2022-12-28T03:52:02.982Z,1008.03
2022-12-28T03:53:02.947Z,1008.06
2022-12-28T03:54:03.281Z,1007.98
2022-12-28T03:55:03.016Z,1008.02
2022-12-28T03:56:02.889Z,1007.97
2022-12-28T03:57:02.288Z,1007.96
2022-12-28T03:58:02.774Z,1007.96
2022-12-28T03:59:02.463Z,1007.96
2022-12-28T04:00:02.854Z,1007.94
2022-12-28T04:01:02.432Z,1007.88
2022-12-28T04:02:02.026Z,1007.93
2022-12-28T04:03:01.871Z,1007.87
2022-12-28T04:04:01.683Z,1007.92
2022-12-28T04:05:02.163Z,1007.75
2022-12-28T04:06:01.767Z,1007.81
2022-12-28T04:07:01.849Z,1007.86
2022-12-28T04:08:02.254Z,1007.82
2022-12-28T04:09:01.808Z,1007.78
2022-12-28T04:10:01.958Z,1007.79
2022-12-28T04:11:02.342Z,1007.82
2022-12-28T04:12:02.988Z,1007.77
2022-12-28T04:13:02.512Z,1007.76
2022-12-28T04:14:08.486Z,1007.77
2022-12-28T04:15:02.943Z,1007.63
2022-12-28T04:16:02.439Z,1007.72
2022-12-28T04:17:01.903Z,1007.68
2022-12-28T04:18:01.987Z,1007.75
2022-12-28T04:19:01.767Z,1007.65
2022-12-28T04:20:02.222Z,1007.71
2022-12-28T04:21:01.843Z,1007.65
2022-12-28T04:22:02.426Z,1007.73
2022-12-28T04:23:02.185Z,1007.66
2022-12-28T04:24:02.676Z,1007.63
2022-12-28T04:25:02.225Z,1007.61
2022-12-28T04:26:03.082Z,1007.62
2022-12-28T04:27:02.585Z,1007.61
2022-12-28T04:28:02.755Z,1007.55
2022-12-28T04:29:02.924Z,1007.57
2022-12-28T04:30:02.692Z,1007.58
2022-12-28T04:31:03.017Z,1007.57
2022-12-28T04:32:02.316Z,1007.53
2022-12-28T04:33:02.226Z,1007.52
2022-12-28T04:34:02.614Z,1007.52
2022-12-28T04:35:02.403Z,1007.46
2022-12-28T04:36:02.133Z,1007.45
2022-12-28T04:37:02.623Z,1007.42
2022-12-28T04:38:02.648Z,1007.43
2022-12-28T04:39:02.879Z,1007.44
2022-12-28T04:40:03.007Z,1007.42
2022-12-28T04:41:02.445Z,1007.45
2022-12-28T04:42:02.002Z,1007.43
2022-12-28T04:43:02.214Z,1007.39
2022-12-28T04:44:01.800Z,1007.37
2022-12-28T04:45:02.127Z,1007.36
2022-12-28T04:46:02.191Z,1007.41
2022-12-28T04:47:02.047Z,1007.39
2022-12-28T04:48:01.739Z,1007.37
2022-12-28T04:49:02.207Z,1007.41
2022-12-28T04:50:02.087Z,1007.42
2022-12-28T04:51:02.070Z,1007.41
2022-12-28T04:52:02.337Z,1007.41
2022-12-28T04:53:02.764Z,1007.37
2022-12-28T04:54:02.759Z,1007.32
2022-12-28T04:55:02.417Z,1007.27
2022-12-28T04:56:02.443Z,1007.31
2022-12-28T04:57:02.388Z,1007.33
2022-12-28T04:58:02.198Z,1007.31
2022-12-28T04:59:01.927Z,1007.31
2022-12-28T05:00:02.411Z,1007.35
2022-12-28T05:01:02.596Z,1007.26
2022-12-28T05:02:02.918Z,1007.28
2022-12-28T05:03:02.712Z,1007.28
2022-12-28T05:04:02.724Z,1007.25
2022-12-28T05:05:02.468Z,1007.26
2022-12-28T05:06:02.891Z,1007.30
2022-12-28T05:07:03.430Z,1007.27
2022-12-28T05:08:03.583Z,1007.30
2022-12-28T05:09:03.042Z,1007.28
2022-12-28T05:10:03.042Z,1007.28
2022-12-28T05:11:03.397Z,1007.20
2022-12-28T05:12:02.765Z,1007.21
2022-12-28T05:13:02.531Z,1007.18
2022-12-28T05:14:02.729Z,1007.21
2022-12-28T05:15:02.769Z,1007.26
2022-12-28T05:16:02.724Z,1007.16
2022-12-28T05:17:03.052Z,1007.16
2022-12-28T05:18:02.836Z,1007.12
2022-12-28T05:19:03.128Z,1007.20
2022-12-28T05:20:02.891Z,1007.21
2022-12-28T05:21:03.192Z,1007.15
2022-12-28T05:22:02.542Z,1007.18
2022-12-28T05:23:02.186Z,1007.18
2022-12-28T05:24:02.648Z,1007.16
2022-12-28T05:25:02.388Z,1007.16
2022-12-28T05:26:02.220Z,1007.17
2022-12-28T05:27:02.743Z,1007.18
2022-12-28T05:28:03.207Z,1007.12
2022-12-28T05:29:02.718Z,1007.17
2022-12-28T05:30:02.409Z,1007.18
2022-12-28T05:31:02.926Z,1007.15
2022-12-28T05:32:03.040Z,1007.15
2022-12-28T05:33:03.435Z,1007.18
2022-12-28T05:34:02.999Z,1007.15
2022-12-28T05:35:03.067Z,1007.09
2022-12-28T05:36:03.488Z,1006.99
2022-12-28T05:37:02.716Z,1007.07
2022-12-28T05:38:02.343Z,1007.10
2022-12-28T05:39:02.802Z,1007.08
2022-12-28T05:40:02.237Z,1007.05
2022-12-28T05:41:02.579Z,1007.02
2022-12-28T05:42:02.860Z,1006.95
2022-12-28T05:43:02.584Z,1007.01
2022-12-28T05:44:03.020Z,1006.93
2022-12-28T05:45:02.591Z,1006.94
2022-12-28T05:46:02.797Z,1006.90
2022-12-28T05:47:03.265Z,1007.00
2022-12-28T05:48:02.877Z,1006.93
2022-12-28T05:49:03.311Z,1006.96
2022-12-28T05:50:03.148Z,1006.96
2022-12-28T05:51:03.014Z,1006.95
2022-12-28T05:52:03.464Z,1006.86
2022-12-28T05:53:03.181Z,1006.83
2022-12-28T05:54:03.149Z,1006.82
2022-12-28T05:55:03.485Z,1006.75
2022-12-28T05:56:03.111Z,1006.75
2022-12-28T05:57:03.380Z,1006.78
2022-12-28T05:58:03.062Z,1006.72
2022-12-28T05:59:02.987Z,1006.65
2022-12-28T06:00:03.269Z,1006.62
2022-12-28T06:01:03.489Z,1006.60
2022-12-28T06:02:02.645Z,1006.63
2022-12-28T06:03:02.852Z,1006.64
2022-12-28T06:04:02.449Z,1006.56
2022-12-28T06:05:02.273Z,1006.53
2022-12-28T06:06:02.655Z,1006.49
2022-12-28T06:07:03.137Z,1006.46
2022-12-28T06:08:02.697Z,1006.51
2022-12-28T06:09:02.741Z,1006.55
2022-12-28T06:10:02.972Z,1006.54
2022-12-28T06:11:02.731Z,1006.44
2022-12-28T06:12:02.231Z,1006.51
2022-12-28T06:13:01.795Z,1006.44
2022-12-28T06:14:01.825Z,1006.44
2022-12-28T06:15:01.718Z,1006.50
2022-12-28T06:16:01.728Z,1006.49
2022-12-28T06:17:01.960Z,1006.53
2022-12-28T06:18:01.859Z,1006.43
2022-12-28T06:19:01.674Z,1006.49
2022-12-28T06:20:01.867Z,1006.49
2022-12-28T06:21:02.208Z,1006.47
2022-12-28T06:22:02.443Z,1006.57
2022-12-28T06:23:01.975Z,1006.50
2022-12-28T06:24:01.774Z,1006.49
2022-12-28T06:25:02.211Z,1006.45
2022-12-28T06:26:01.923Z,1006.54
2022-12-28T06:27:03.109Z,1006.54
2022-12-28T06:28:02.546Z,1006.53
2022-12-28T06:29:02.829Z,1006.53
2022-12-28T06:30:02.584Z,1006.56
2022-12-28T06:31:03.049Z,1006.48
2022-12-28T06:32:01.653Z,1006.44
2022-12-28T06:33:02.267Z,1006.46
2022-12-28T06:34:01.731Z,1006.47
2022-12-28T06:36:01.864Z,1006.47
2022-12-28T06:37:01.744Z,1006.29
2022-12-28T06:38:02.201Z,1006.36
2022-12-28T06:39:01.924Z,1006.30
2022-12-28T06:40:01.712Z,1006.27
2022-12-28T06:41:13.286Z,1006.28
2022-12-28T06:42:02.080Z,1006.33
2022-12-28T06:43:02.042Z,1006.21
2022-12-28T06:44:02.460Z,1006.25
2022-12-28T06:45:02.656Z,1006.20
2022-12-28T06:46:02.599Z,1006.20
2022-12-28T06:47:02.616Z,1006.23
2022-12-28T06:48:02.431Z,1006.18
2022-12-28T06:49:02.249Z,1006.22
2022-12-28T06:50:02.205Z,1006.20
2022-12-28T06:51:02.612Z,1006.16
2022-12-28T06:52:02.407Z,1006.15
2022-12-28T06:53:02.775Z,1006.11
2022-12-28T06:54:02.351Z,1006.13
2022-12-28T06:55:02.585Z,1006.08
2022-12-28T06:56:02.678Z,1006.13
2022-12-28T06:57:02.461Z,1006.08
2022-12-28T06:58:02.254Z,1006.01
2022-12-28T06:59:03.746Z,1006.05
2022-12-28T07:00:01.963Z,1006.03
2022-12-28T07:01:02.558Z,1006.08
2022-12-28T07:02:02.433Z,1006.00
2022-12-28T07:03:02.606Z,1006.05
2022-12-28T07:04:02.226Z,1006.03
2022-12-28T07:05:02.505Z,1006.10
2022-12-28T07:06:02.125Z,1006.02
2022-12-28T07:07:02.548Z,1006.06
2022-12-28T07:08:07.686Z,1006.06
2022-12-28T07:09:02.819Z,1006.11
2022-12-28T07:10:03.116Z,1006.13
2022-12-28T07:11:02.657Z,1006.09
2022-12-28T07:12:02.225Z,1006.04
2022-12-28T07:13:02.651Z,1006.07
2022-12-28T07:14:02.204Z,1006.11
2022-12-28T07:15:02.120Z,1006.04
2022-12-28T07:16:02.654Z,1006.10
2022-12-28T07:17:02.813Z,1006.08
2022-12-28T07:18:02.966Z,1006.06
2022-12-28T07:19:02.789Z,1006.09
2022-12-28T07:20:03.247Z,1006.09
2022-12-28T07:21:02.911Z,1006.14
2022-12-28T07:22:02.354Z,1006.09
2022-12-28T07:23:02.818Z,1006.13
2022-12-28T07:24:02.780Z,1006.10
2022-12-28T07:25:02.944Z,1006.09
2022-12-28T07:26:02.759Z,1006.12
2022-12-28T07:27:02.115Z,1006.05
2022-12-28T07:28:01.855Z,1006.11
2022-12-28T07:29:02.324Z,1006.10
2022-12-28T07:30:02.112Z,1006.13
2022-12-28T07:31:02.245Z,1006.08
2022-12-28T07:32:02.662Z,1006.09
2022-12-28T07:33:02.419Z,1006.15
2022-12-28T07:34:02.641Z,1006.10
2022-12-28T07:35:02.584Z,1006.09
2022-12-28T07:36:02.369Z,1006.07
2022-12-28T07:37:02.914Z,1006.09
2022-12-28T07:38:02.779Z,1006.16
2022-12-28T07:39:03.193Z,1006.09
2022-12-28T07:40:02.812Z,1006.08
2022-12-28T07:41:03.191Z,1006.12
2022-12-28T07:42:02.063Z,1006.09
2022-12-28T07:43:01.881Z,1006.08
2022-12-28T07:44:02.027Z,1006.11
2022-12-28T07:45:02.350Z,1006.04
2022-12-28T07:46:01.914Z,1006.10
2022-12-28T07:47:02.377Z,1006.10
2022-12-28T07:48:02.489Z,1006.10
2022-12-28T07:49:02.293Z,1006.12
2022-12-28T07:50:02.174Z,1006.09
2022-12-28T07:51:02.084Z,1006.06
2022-12-28T07:52:02.488Z,1006.05
2022-12-28T07:53:02.266Z,1005.99
2022-12-28T07:54:02.827Z,1006.01
2022-12-28T07:55:02.317Z,1006.03
2022-12-28T07:56:02.714Z,1006.07
2022-12-28T07:57:02.564Z,1006.02
2022-12-28T07:58:02.396Z,1006.01
2022-12-28T07:59:02.242Z,1005.94
2022-12-28T08:00:02.329Z,1006.01
2022-12-28T08:01:02.293Z,1005.97
2022-12-28T08:02:02.502Z,1006.00
2022-12-28T08:03:02.479Z,1006.04
2022-12-28T08:04:02.428Z,1005.99
2022-12-28T08:05:02.596Z,1006.09
2022-12-28T08:06:02.631Z,1006.04
2022-12-28T08:07:03.219Z,1006.05
2022-12-28T08:08:03.928Z,1006.03
2022-12-28T08:09:03.371Z,1006.00
2022-12-28T08:10:03.292Z,1006.01
2022-12-28T08:11:03.059Z,1006.12
2022-12-28T08:12:02.530Z,1006.01
2022-12-28T08:13:02.280Z,1006.05
2022-12-28T08:14:02.699Z,1006.05
2022-12-28T08:15:02.380Z,1006.08
2022-12-28T08:16:02.279Z,1006.03
2022-12-28T08:17:02.704Z,1006.03
2022-12-28T08:18:02.734Z,1005.98
2022-12-28T08:19:02.685Z,1006.04
2022-12-28T08:20:02.454Z,1006.09
2022-12-28T08:21:02.916Z,1006.10
2022-12-28T08:22:03.012Z,1006.14
2022-12-28T08:23:02.967Z,1006.10
2022-12-28T08:24:02.893Z,1006.06
2022-12-28T08:25:02.832Z,1006.07
2022-12-28T08:26:03.472Z,1006.05
2022-12-28T08:27:02.958Z,1006.05
2022-12-28T08:28:03.137Z,1006.04
2022-12-28T08:29:03.024Z,1006.08
2022-12-28T08:30:02.726Z,1006.04
2022-12-28T08:31:03.045Z,1006.11
2022-12-28T08:32:03.343Z,1006.07
2022-12-28T08:33:03.414Z,1006.17
2022-12-28T08:34:03.316Z,1006.06
2022-12-28T08:35:03.179Z,1006.09
2022-12-28T08:36:02.940Z,1006.09
2022-12-28T08:37:02.541Z,1006.10
2022-12-28T08:38:02.554Z,1006.07
2022-12-28T08:39:02.696Z,1006.09
2022-12-28T08:40:02.395Z,1006.12
2022-12-28T08:41:02.275Z,1006.04
2022-12-28T08:42:02.838Z,1006.07
2022-12-28T08:43:02.466Z,1006.10
2022-12-28T08:44:02.959Z,1006.11
2022-12-28T08:45:02.532Z,1005.99
2022-12-28T08:46:02.741Z,1006.01
2022-12-28T08:47:03.436Z,1006.01
2022-12-28T08:48:03.067Z,1006.04
2022-12-28T08:49:02.875Z,1006.04
2022-12-28T08:50:03.023Z,1006.04
2022-12-28T08:51:02.962Z,1006.01
2022-12-28T08:52:03.491Z,1005.99
2022-12-28T08:53:03.368Z,1006.03
2022-12-28T08:54:03.317Z,1005.97
2022-12-28T08:55:02.964Z,1006.02
2022-12-28T08:56:06.629Z,1005.99
2022-12-28T08:57:02.679Z,1006.03
2022-12-28T08:58:02.625Z,1006.02
2022-12-28T08:59:02.689Z,1005.97
2022-12-28T09:00:02.394Z,1006.04
2022-12-28T09:01:02.558Z,1005.93
2022-12-28T09:02:03.060Z,1005.97
2022-12-28T09:03:02.971Z,1005.94
2022-12-28T09:04:02.701Z,1005.97
2022-12-28T09:05:02.480Z,1005.94
2022-12-28T09:06:03.013Z,1005.98
2022-12-28T09:07:03.609Z,1006.00
2022-12-28T09:08:03.143Z,1005.98
2022-12-28T09:09:06.353Z,1006.01
2022-12-28T09:10:03.438Z,1006.04
2022-12-28T09:11:03.228Z,1006.00
2022-12-28T09:12:02.921Z,1006.01
2022-12-28T09:13:02.869Z,1006.03
2022-12-28T09:14:02.579Z,1005.98
2022-12-28T09:15:02.542Z,1005.93
2022-12-28T09:16:02.531Z,1005.98
2022-12-28T09:17:03.288Z,1006.02
2022-12-28T09:18:03.076Z,1006.02
2022-12-28T09:19:03.088Z,1006.02
2022-12-28T09:20:03.083Z,1006.01
2022-12-28T09:21:02.671Z,1006.03
2022-12-28T09:22:03.352Z,1006.05
2022-12-28T09:23:03.361Z,1006.01
2022-12-28T09:24:03.016Z,1006.00
2022-12-28T09:25:02.963Z,1006.06
2022-12-28T09:26:03.216Z,1006.00
2022-12-28T09:27:02.172Z,1006.02
2022-12-28T09:28:02.655Z,1006.05
2022-12-28T09:29:02.672Z,1006.01
2022-12-28T09:30:02.474Z,1006.03
2022-12-28T09:31:02.499Z,1006.05
2022-12-28T09:32:02.431Z,1006.04
2022-12-28T09:33:02.418Z,1006.08
2022-12-28T09:34:34.976Z,1006.04
2022-12-28T09:35:02.659Z,1006.08
2022-12-28T09:36:02.623Z,1006.07
2022-12-28T09:37:02.538Z,1006.05
2022-12-28T09:38:03.092Z,1006.07
2022-12-28T09:39:02.843Z,1006.06
2022-12-28T09:40:02.709Z,1006.11
2022-12-28T09:41:02.697Z,1006.06
2022-12-28T09:42:02.859Z,1006.05
2022-12-28T09:43:02.723Z,1006.07
2022-12-28T09:44:02.759Z,1006.14
2022-12-28T09:45:03.008Z,1006.14
2022-12-28T09:46:02.727Z,1006.11
2022-12-28T09:47:02.861Z,1006.12
2022-12-28T09:48:03.411Z,1006.10
2022-12-28T09:49:03.421Z,1006.12
2022-12-28T09:50:03.462Z,1006.13
2022-12-28T09:51:03.149Z,1006.12
2022-12-28T09:52:02.175Z,1006.15
2022-12-28T09:53:02.547Z,1006.11
2022-12-28T09:54:02.472Z,1006.09
2022-12-28T09:55:02.329Z,1006.15
2022-12-28T09:56:02.318Z,1006.12
2022-12-28T09:57:02.242Z,1006.18
2022-12-28T09:58:02.460Z,1006.08
2022-12-28T09:59:02.489Z,1006.14
2022-12-28T10:00:02.460Z,1006.15
2022-12-28T10:01:02.625Z,1006.10
2022-12-28T10:02:02.674Z,1006.16
2022-12-28T10:03:02.438Z,1006.15
2022-12-28T10:04:02.954Z,1006.09
2022-12-28T10:05:02.533Z,1006.12
2022-12-28T10:06:02.419Z,1006.10
2022-12-28T10:07:02.776Z,1006.12
2022-12-28T10:08:02.784Z,1006.03
2022-12-28T10:09:02.910Z,1006.09
2022-12-28T10:10:02.836Z,1006.09
2022-12-28T10:11:03.244Z,1006.07
2022-12-28T10:12:02.951Z,1006.02
2022-12-28T10:13:04.652Z,1006.02
2022-12-28T10:14:03.050Z,1005.94
2022-12-28T10:15:03.268Z,1005.93
2022-12-28T10:16:03.346Z,1005.96
2022-12-28T10:17:02.244Z,1005.93
2022-12-28T10:18:02.202Z,1006.02
2022-12-28T10:19:02.714Z,1005.97
2022-12-28T10:20:02.682Z,1006.01
2022-12-28T10:21:02.580Z,1006.00
2022-12-28T10:22:02.715Z,1005.99
2022-12-28T10:23:02.991Z,1005.98
2022-12-28T10:25:02.800Z,1005.91
2022-12-28T10:26:02.964Z,1005.92
2022-12-28T10:27:02.934Z,1005.94
2022-12-28T10:28:02.839Z,1005.93
2022-12-28T10:29:02.975Z,1005.91
2022-12-28T10:30:03.074Z,1005.86
2022-12-28T10:31:03.424Z,1005.83
2022-12-28T10:32:03.183Z,1005.86
2022-12-28T10:33:03.847Z,1005.83
2022-12-28T10:34:03.607Z,1005.91
2022-12-28T10:35:03.343Z,1005.84
2022-12-28T10:36:03.222Z,1005.84
2022-12-28T10:37:02.242Z,1005.85
2022-12-28T10:38:02.215Z,1005.81
2022-12-28T10:39:02.079Z,1005.83
2022-12-28T10:40:02.409Z,1005.78
2022-12-28T10:41:02.098Z,1005.76
2022-12-28T10:42:02.805Z,1005.77
2022-12-28T10:43:08.644Z,1005.78
2022-12-28T10:44:37.321Z,1005.82
2022-12-28T10:45:03.288Z,1005.81
2022-12-28T10:46:03.028Z,1005.86
2022-12-28T10:47:03.234Z,1005.73
2022-12-28T10:48:03.098Z,1005.74
2022-12-28T10:49:03.255Z,1005.69
2022-12-28T10:50:36.100Z,1005.71
2022-12-28T10:51:03.080Z,1005.66
2022-12-28T10:52:02.736Z,1005.71
2022-12-28T10:53:02.862Z,1005.67
2022-12-28T10:54:02.601Z,1005.64
2022-12-28T10:55:08.251Z,1005.62
2022-12-28T10:56:02.606Z,1005.61
2022-12-28T10:57:03.603Z,1005.58
2022-12-28T10:58:28.636Z,1005.56
2022-12-28T10:59:03.307Z,1005.54
2022-12-28T11:00:03.517Z,1005.51
2022-12-28T11:01:03.253Z,1005.55
2022-12-28T11:02:03.427Z,1005.48
2022-12-28T11:03:03.567Z,1005.43
2022-12-28T11:04:03.340Z,1005.52
2022-12-28T11:05:03.330Z,1005.45
2022-12-28T11:06:03.183Z,1005.41
2022-12-28T11:07:02.845Z,1005.45
2022-12-28T11:08:03.084Z,1005.46
2022-12-28T11:09:02.857Z,1005.43
2022-12-28T11:10:03.176Z,1005.42
2022-12-28T11:11:03.065Z,1005.39
2022-12-28T11:12:03.071Z,1005.40
2022-12-28T11:13:02.937Z,1005.37
2022-12-28T11:14:03.428Z,1005.37
2022-12-28T11:15:03.145Z,1005.36
2022-12-28T11:16:03.091Z,1005.31
2022-12-28T11:17:03.076Z,1005.31
2022-12-28T11:18:03.008Z,1005.28
2022-12-28T11:19:02.828Z,1005.27
2022-12-28T11:20:03.144Z,1005.23
2022-12-28T11:21:02.811Z,1005.23
2022-12-28T11:22:02.399Z,1005.24
2022-12-28T11:23:02.816Z,1005.21
2022-12-28T11:24:02.643Z,1005.26
2022-12-28T11:25:02.865Z,1005.25
2022-12-28T11:26:02.371Z,1005.27
2022-12-28T11:27:03.019Z,1005.23
2022-12-28T11:28:03.008Z,1005.25
2022-12-28T11:29:03.121Z,1005.22
2022-12-28T11:30:03.085Z,1005.24
2022-12-28T11:31:02.894Z,1005.26
2022-12-28T11:32:03.080Z,1005.20
2022-12-28T11:33:03.400Z,1005.22
2022-12-28T11:34:02.991Z,1005.19
2022-12-28T11:35:03.126Z,1005.20
2022-12-28T11:36:08.294Z,1005.21
2022-12-28T11:37:02.812Z,1005.19
2022-12-28T11:38:02.533Z,1005.15
2022-12-28T11:40:02.697Z,1005.14
2022-12-28T11:41:02.635Z,1005.13
2022-12-28T11:43:03.119Z,1005.18
2022-12-28T11:44:03.140Z,1005.17
2022-12-28T11:45:03.193Z,1005.19
2022-12-28T11:46:02.746Z,1005.16
2022-12-28T11:47:03.502Z,1005.15
2022-12-28T11:48:03.301Z,1005.16
2022-12-28T11:49:03.680Z,1005.16
2022-12-28T11:50:03.535Z,1005.14
2022-12-28T11:51:03.753Z,1005.14
2022-12-28T11:52:02.795Z,1005.15
2022-12-28T11:53:04.775Z,1005.12
2022-12-28T11:54:02.498Z,1005.12
2022-12-28T11:55:02.349Z,1005.09
2022-12-28T11:56:02.734Z,1005.08
2022-12-28T11:57:03.032Z,1005.13
2022-12-28T11:58:03.052Z,1005.09
2022-12-28T11:59:03.134Z,1005.02
2022-12-28T12:00:03.083Z,1005.08
2022-12-28T12:01:02.776Z,1005.06
2022-12-28T12:02:02.532Z,1005.05
2022-12-28T12:03:02.308Z,1005.02
2022-12-28T12:04:02.360Z,1004.95
2022-12-28T12:05:02.117Z,1004.96
2022-12-28T12:06:02.659Z,1004.99
2022-12-28T12:07:02.869Z,1005.02
2022-12-28T12:08:02.514Z,1005.05
2022-12-28T12:09:02.983Z,1005.05